sensor_id;sensor_type;location;lat;lon;timestamp;P1;durP1;ratioP1;P2;durP2;ratioP2
1446;SDS011;717;51.522;7.266;2023-11-19T00:01:40;1.08;;;1.02;;
1446;SDS011;717;51.522;7.266;2023-11-19T00:04:13;1.30;;;1.20;;
1446;SDS011;717;51.522;7.266;2023-11-19T00:06:43;1.63;;;1.50;;
1446;SDS011;717;51.522;7.266;2023-11-19T00:09:13;1.90;;;1.40;;
1446;SDS011;717;51.522;7.266;2023-11-19T00:11:44;1.60;;;1.50;;
1446;SDS011;717;51.522;7.266;2023-11-19T00:14:17;1.85;;;1.75;;
1446;SDS011;717;51.522;7.266;2023-11-19T00:16:47;1.98;;;1.77;;
1446;SDS011;717;51.522;7.266;2023-11-19T00:19:20;2.38;;;2.10;;
1446;SDS011;717;51.522;7.266;2023-11-19T00:21:50;2.47;;;2.20;;
1446;SDS011;717;51.522;7.266;2023-11-19T00:24:20;2.58;;;2.35;;
1446;SDS011;717;51.522;7.266;2023-11-19T00:26:50;2.58;;;2.40;;
1446;SDS011;717;51.522;7.266;2023-11-19T00:29:20;2.65;;;2.42;;
1446;SDS011;717;51.522;7.266;2023-11-19T00:31:51;3.10;;;2.80;;
1446;SDS011;717;51.522;7.266;2023-11-19T00:34:24;3.10;;;2.80;;
1446;SDS011;717;51.522;7.266;2023-11-19T00:36:54;3.47;;;3.13;;
1446;SDS011;717;51.522;7.266;2023-11-19T00:39:24;3.60;;;3.20;;
1446;SDS011;717;51.522;7.266;2023-11-19T00:41:54;3.03;;;2.83;;
1446;SDS011;717;51.522;7.266;2023-11-19T00:44:24;4.07;;;3.78;;
1446;SDS011;717;51.522;7.266;2023-11-19T00:46:54;4.30;;;3.67;;
1446;SDS011;717;51.522;7.266;2023-11-19T00:49:27;3.50;;;3.20;;
1446;SDS011;717;51.522;7.266;2023-11-19T00:51:59;4.18;;;3.22;;
1446;SDS011;717;51.522;7.266;2023-11-19T00:54:29;3.50;;;3.30;;
1446;SDS011;717;51.522;7.266;2023-11-19T00:56:59;4.05;;;3.70;;
1446;SDS011;717;51.522;7.266;2023-11-19T00:59:30;3.97;;;3.67;;
1446;SDS011;717;51.522;7.266;2023-11-19T01:02:00;3.53;;;3.15;;
1446;SDS011;717;51.522;7.266;2023-11-19T01:04:36;3.97;;;3.50;;
1446;SDS011;717;51.522;7.266;2023-11-19T01:07:07;4.35;;;3.95;;
1446;SDS011;717;51.522;7.266;2023-11-19T01:09:41;5.43;;;4.28;;
1446;SDS011;717;51.522;7.266;2023-11-19T01:12:11;4.60;;;4.20;;
1446;SDS011;717;51.522;7.266;2023-11-19T01:14:42;5.13;;;4.72;;
1446;SDS011;717;51.522;7.266;2023-11-19T01:17:12;4.53;;;4.13;;
1446;SDS011;717;51.522;7.266;2023-11-19T01:19:46;5.53;;;4.40;;
1446;SDS011;717;51.522;7.266;2023-11-19T01:22:17;4.22;;;3.85;;
1446;SDS011;717;51.522;7.266;2023-11-19T01:24:47;4.60;;;3.70;;
1446;SDS011;717;51.522;7.266;2023-11-19T01:27:18;4.13;;;3.78;;
1446;SDS011;717;51.522;7.266;2023-11-19T01:29:48;4.00;;;3.60;;
1446;SDS011;717;51.522;7.266;2023-11-19T01:32:19;3.40;;;3.10;;
1446;SDS011;717;51.522;7.266;2023-11-19T01:34:53;3.20;;;3.00;;
1446;SDS011;717;51.522;7.266;2023-11-19T01:37:23;3.72;;;3.05;;
1446;SDS011;717;51.522;7.266;2023-11-19T01:39:53;2.67;;;2.47;;
1446;SDS011;717;51.522;7.266;2023-11-19T01:42:25;2.97;;;2.45;;
1446;SDS011;717;51.522;7.266;2023-11-19T01:44:56;2.42;;;2.22;;
1446;SDS011;717;51.522;7.266;2023-11-19T01:47:28;2.63;;;2.38;;
1446;SDS011;717;51.522;7.266;2023-11-19T01:50:02;2.08;;;1.98;;
1446;SDS011;717;51.522;7.266;2023-11-19T01:52:35;2.25;;;2.08;;
1446;SDS011;717;51.522;7.266;2023-11-19T01:55:07;2.35;;;2.15;;
1446;SDS011;717;51.522;7.266;2023-11-19T01:57:39;3.38;;;2.20;;
1446;SDS011;717;51.522;7.266;2023-11-19T02:00:09;2.50;;;2.30;;
1446;SDS011;717;51.522;7.266;2023-11-19T02:02:42;2.30;;;2.10;;
1446;SDS011;717;51.522;7.266;2023-11-19T02:05:16;2.30;;;2.10;;
1446;SDS011;717;51.522;7.266;2023-11-19T02:07:47;2.65;;;2.45;;
1446;SDS011;717;51.522;7.266;2023-11-19T02:10:18;2.65;;;2.13;;
1446;SDS011;717;51.522;7.266;2023-11-19T02:12:51;2.58;;;2.38;;
1446;SDS011;717;51.522;7.266;2023-11-19T02:15:32;2.78;;;2.45;;
1446;SDS011;717;51.522;7.266;2023-11-19T02:18:18;3.80;;;2.58;;
1446;SDS011;717;51.522;7.266;2023-11-19T02:20:51;2.90;;;2.70;;
1446;SDS011;717;51.522;7.266;2023-11-19T02:23:22;4.20;;;2.60;;
1446;SDS011;717;51.522;7.266;2023-11-19T02:25:59;2.88;;;2.63;;
1446;SDS011;717;51.522;7.266;2023-11-19T02:28:47;3.20;;;2.63;;
1446;SDS011;717;51.522;7.266;2023-11-19T02:31:17;5.00;;;2.65;;
1446;SDS011;717;51.522;7.266;2023-11-19T02:33:47;4.53;;;3.03;;
1446;SDS011;717;51.522;7.266;2023-11-19T02:36:17;4.57;;;2.75;;
1446;SDS011;717;51.522;7.266;2023-11-19T02:38:48;3.63;;;3.22;;
1446;SDS011;717;51.522;7.266;2023-11-19T02:41:18;4.20;;;2.80;;
1446;SDS011;717;51.522;7.266;2023-11-19T02:43:50;4.38;;;2.35;;
1446;SDS011;717;51.522;7.266;2023-11-19T02:46:21;3.45;;;2.00;;
1446;SDS011;717;51.522;7.266;2023-11-19T02:48:51;4.45;;;1.80;;
1446;SDS011;717;51.522;7.266;2023-11-19T02:51:22;2.60;;;2.00;;
1446;SDS011;717;51.522;7.266;2023-11-19T02:53:54;5.10;;;2.05;;
1446;SDS011;717;51.522;7.266;2023-11-19T02:56:24;4.00;;;1.85;;
1446;SDS011;717;51.522;7.266;2023-11-19T02:58:58;5.03;;;2.20;;
1446;SDS011;717;51.522;7.266;2023-11-19T03:01:34;4.95;;;1.88;;
1446;SDS011;717;51.522;7.266;2023-11-19T03:04:04;4.45;;;2.13;;
1446;SDS011;717;51.522;7.266;2023-11-19T03:06:38;4.80;;;2.03;;
1446;SDS011;717;51.522;7.266;2023-11-19T03:09:08;5.80;;;2.13;;
1446;SDS011;717;51.522;7.266;2023-11-19T03:11:38;3.28;;;2.20;;
1446;SDS011;717;51.522;7.266;2023-11-19T03:14:11;7.45;;;2.00;;
1446;SDS011;717;51.522;7.266;2023-11-19T03:16:41;3.17;;;1.90;;
1446;SDS011;717;51.522;7.266;2023-11-19T03:19:14;6.57;;;2.55;;
1446;SDS011;717;51.522;7.266;2023-11-19T03:21:47;6.03;;;2.95;;
1446;SDS011;717;51.522;7.266;2023-11-19T03:24:18;5.82;;;2.22;;
1446;SDS011;717;51.522;7.266;2023-11-19T03:26:48;5.35;;;2.35;;
1446;SDS011;717;51.522;7.266;2023-11-19T03:29:22;9.07;;;2.47;;
1446;SDS011;717;51.522;7.266;2023-11-19T03:31:53;5.82;;;2.70;;
1446;SDS011;717;51.522;7.266;2023-11-19T03:34:23;6.40;;;2.38;;
1446;SDS011;717;51.522;7.266;2023-11-19T03:36:53;5.40;;;2.17;;
1446;SDS011;717;51.522;7.266;2023-11-19T03:39:23;6.15;;;2.10;;
1446;SDS011;717;51.522;7.266;2023-11-19T03:41:53;6.28;;;2.65;;
1446;SDS011;717;51.522;7.266;2023-11-19T03:44:26;6.57;;;2.08;;
1446;SDS011;717;51.522;7.266;2023-11-19T03:46:56;5.85;;;2.22;;
1446;SDS011;717;51.522;7.266;2023-11-19T03:49:27;7.28;;;2.40;;
1446;SDS011;717;51.522;7.266;2023-11-19T03:51:57;9.80;;;3.08;;
1446;SDS011;717;51.522;7.266;2023-11-19T03:54:27;4.63;;;2.13;;
1446;SDS011;717;51.522;7.266;2023-11-19T03:56:59;10.93;;;2.50;;
1446;SDS011;717;51.522;7.266;2023-11-19T03:59:32;7.60;;;2.40;;
1446;SDS011;717;51.522;7.266;2023-11-19T04:02:03;6.95;;;2.17;;
1446;SDS011;717;51.522;7.266;2023-11-19T04:04:33;9.00;;;2.50;;
1446;SDS011;717;51.522;7.266;2023-11-19T04:07:04;9.02;;;2.60;;
1446;SDS011;717;51.522;7.266;2023-11-19T04:09:34;7.75;;;2.10;;
1446;SDS011;717;51.522;7.266;2023-11-19T04:12:05;10.15;;;2.60;;
1446;SDS011;717;51.522;7.266;2023-11-19T04:14:38;10.18;;;2.22;;
1446;SDS011;717;51.522;7.266;2023-11-19T04:17:08;9.40;;;2.60;;
1446;SDS011;717;51.522;7.266;2023-11-19T04:19:38;12.50;;;2.47;;
1446;SDS011;717;51.522;7.266;2023-11-19T04:22:10;6.18;;;2.35;;
1446;SDS011;717;51.522;7.266;2023-11-19T04:24:40;11.57;;;3.13;;
1446;SDS011;717;51.522;7.266;2023-11-19T04:27:10;12.20;;;2.47;;
1446;SDS011;717;51.522;7.266;2023-11-19T04:29:43;10.65;;;2.70;;
1446;SDS011;717;51.522;7.266;2023-11-19T04:32:14;11.73;;;2.75;;
1446;SDS011;717;51.522;7.266;2023-11-19T04:34:44;8.00;;;2.30;;
1446;SDS011;717;51.522;7.266;2023-11-19T04:37:14;7.72;;;2.10;;
1446;SDS011;717;51.522;7.266;2023-11-19T04:39:44;9.20;;;2.40;;
1446;SDS011;717;51.522;7.266;2023-11-19T04:42:14;12.23;;;2.28;;
1446;SDS011;717;51.522;7.266;2023-11-19T04:44:48;8.35;;;2.05;;
1446;SDS011;717;51.522;7.266;2023-11-19T04:47:19;8.25;;;2.50;;
1446;SDS011;717;51.522;7.266;2023-11-19T04:49:49;11.95;;;2.83;;
1446;SDS011;717;51.522;7.266;2023-11-19T04:52:19;11.07;;;2.05;;
1446;SDS011;717;51.522;7.266;2023-11-19T04:54:49;10.98;;;2.25;;
1446;SDS011;717;51.522;7.266;2023-11-19T04:57:19;10.50;;;2.88;;
1446;SDS011;717;51.522;7.266;2023-11-19T04:59:52;13.57;;;2.97;;
1446;SDS011;717;51.522;7.266;2023-11-19T05:02:22;11.23;;;2.20;;
1446;SDS011;717;51.522;7.266;2023-11-19T05:04:52;13.88;;;2.47;;
1446;SDS011;717;51.522;7.266;2023-11-19T05:07:23;15.90;;;2.58;;
1446;SDS011;717;51.522;7.266;2023-11-19T05:09:53;14.18;;;2.60;;
1446;SDS011;717;51.522;7.266;2023-11-19T05:12:24;13.95;;;2.80;;
1446;SDS011;717;51.522;7.266;2023-11-19T05:14:56;14.90;;;2.85;;
1446;SDS011;717;51.522;7.266;2023-11-19T05:17:27;18.50;;;3.35;;
1446;SDS011;717;51.522;7.266;2023-11-19T05:19:57;12.13;;;2.70;;
1446;SDS011;717;51.522;7.266;2023-11-19T05:22:27;11.95;;;2.60;;
1446;SDS011;717;51.522;7.266;2023-11-19T05:24:57;12.85;;;2.72;;
1446;SDS011;717;51.522;7.266;2023-11-19T05:27:28;13.18;;;2.80;;
1446;SDS011;717;51.522;7.266;2023-11-19T05:30:01;17.42;;;3.33;;
1446;SDS011;717;51.522;7.266;2023-11-19T05:32:33;12.32;;;3.17;;
1446;SDS011;717;51.522;7.266;2023-11-19T05:35:04;11.35;;;2.88;;
1446;SDS011;717;51.522;7.266;2023-11-19T05:37:35;13.07;;;3.10;;
1446;SDS011;717;51.522;7.266;2023-11-19T05:40:06;12.18;;;2.70;;
1446;SDS011;717;51.522;7.266;2023-11-19T05:42:42;11.68;;;2.47;;
1446;SDS011;717;51.522;7.266;2023-11-19T05:45:14;14.07;;;2.55;;
1446;SDS011;717;51.522;7.266;2023-11-19T05:47:44;10.90;;;2.50;;
1446;SDS011;717;51.522;7.266;2023-11-19T05:50:15;11.40;;;2.72;;
1446;SDS011;717;51.522;7.266;2023-11-19T05:52:45;13.85;;;3.25;;
1446;SDS011;717;51.522;7.266;2023-11-19T05:55:16;13.13;;;3.55;;
1446;SDS011;717;51.522;7.266;2023-11-19T05:57:46;16.52;;;2.83;;
1446;SDS011;717;51.522;7.266;2023-11-19T06:00:21;12.32;;;2.90;;
1446;SDS011;717;51.522;7.266;2023-11-19T06:02:51;15.93;;;3.40;;
1446;SDS011;717;51.522;7.266;2023-11-19T06:05:21;9.70;;;2.88;;
1446;SDS011;717;51.522;7.266;2023-11-19T06:07:51;9.45;;;3.15;;
1446;SDS011;717;51.522;7.266;2023-11-19T06:10:21;14.63;;;3.08;;
1446;SDS011;717;51.522;7.266;2023-11-19T06:12:56;15.10;;;3.35;;
1446;SDS011;717;51.522;7.266;2023-11-19T06:15:29;13.68;;;2.78;;
1446;SDS011;717;51.522;7.266;2023-11-19T06:17:59;12.32;;;3.55;;
1446;SDS011;717;51.522;7.266;2023-11-19T06:20:30;11.32;;;2.15;;
1446;SDS011;717;51.522;7.266;2023-11-19T06:23:03;15.40;;;3.67;;
1446;SDS011;717;51.522;7.266;2023-11-19T06:25:33;13.63;;;2.78;;
1446;SDS011;717;51.522;7.266;2023-11-19T06:28:04;11.98;;;2.63;;
1446;SDS011;717;51.522;7.266;2023-11-19T06:30:36;11.98;;;2.88;;
1446;SDS011;717;51.522;7.266;2023-11-19T06:33:08;14.38;;;2.80;;
1446;SDS011;717;51.522;7.266;2023-11-19T06:35:38;16.52;;;3.50;;
1446;SDS011;717;51.522;7.266;2023-11-19T06:38:08;12.15;;;2.58;;
1446;SDS011;717;51.522;7.266;2023-11-19T06:40:38;13.07;;;2.75;;
1446;SDS011;717;51.522;7.266;2023-11-19T06:43:08;15.07;;;3.33;;
1446;SDS011;717;51.522;7.266;2023-11-19T06:45:41;10.98;;;2.28;;
1446;SDS011;717;51.522;7.266;2023-11-19T06:48:11;12.00;;;2.67;;
1446;SDS011;717;51.522;7.266;2023-11-19T06:50:41;12.40;;;2.70;;
1446;SDS011;717;51.522;7.266;2023-11-19T06:53:11;15.15;;;2.80;;
1446;SDS011;717;51.522;7.266;2023-11-19T06:55:42;12.07;;;2.97;;
1446;SDS011;717;51.522;7.266;2023-11-19T06:58:12;12.75;;;3.15;;
1446;SDS011;717;51.522;7.266;2023-11-19T07:00:44;13.95;;;3.83;;
1446;SDS011;717;51.522;7.266;2023-11-19T07:03:16;13.35;;;2.80;;
1446;SDS011;717;51.522;7.266;2023-11-19T07:05:47;14.60;;;3.30;;
1446;SDS011;717;51.522;7.266;2023-11-19T07:08:17;13.38;;;2.45;;
1446;SDS011;717;51.522;7.266;2023-11-19T07:10:47;13.68;;;2.90;;
1446;SDS011;717;51.522;7.266;2023-11-19T07:13:17;11.13;;;3.05;;
1446;SDS011;717;51.522;7.266;2023-11-19T07:15:50;12.80;;;2.45;;
1446;SDS011;717;51.522;7.266;2023-11-19T07:18:20;10.93;;;2.78;;
1446;SDS011;717;51.522;7.266;2023-11-19T07:20:51;13.43;;;2.42;;
1446;SDS011;717;51.522;7.266;2023-11-19T07:23:21;17.92;;;3.58;;
1446;SDS011;717;51.522;7.266;2023-11-19T07:25:52;13.95;;;2.95;;
1446;SDS011;717;51.522;7.266;2023-11-19T07:28:23;12.90;;;2.55;;
1446;SDS011;717;51.522;7.266;2023-11-19T07:30:57;17.60;;;3.88;;
1446;SDS011;717;51.522;7.266;2023-11-19T07:33:28;14.00;;;3.08;;
1446;SDS011;717;51.522;7.266;2023-11-19T07:35:58;13.27;;;2.67;;
1446;SDS011;717;51.522;7.266;2023-11-19T07:38:28;13.23;;;3.40;;
1446;SDS011;717;51.522;7.266;2023-11-19T07:40:58;12.40;;;2.85;;
1446;SDS011;717;51.522;7.266;2023-11-19T07:43:29;14.88;;;3.72;;
1446;SDS011;717;51.522;7.266;2023-11-19T07:46:01;13.77;;;2.55;;
1446;SDS011;717;51.522;7.266;2023-11-19T07:48:34;13.00;;;2.60;;
1446;SDS011;717;51.522;7.266;2023-11-19T07:51:04;14.20;;;3.25;;
1446;SDS011;717;51.522;7.266;2023-11-19T07:53:34;12.73;;;2.90;;
1446;SDS011;717;51.522;7.266;2023-11-19T07:56:05;13.93;;;3.08;;
1446;SDS011;717;51.522;7.266;2023-11-19T07:58:36;14.35;;;3.33;;
1446;SDS011;717;51.522;7.266;2023-11-19T08:01:09;16.70;;;3.08;;
1446;SDS011;717;51.522;7.266;2023-11-19T08:03:40;11.60;;;2.63;;
1446;SDS011;717;51.522;7.266;2023-11-19T08:06:24;12.45;;;2.90;;
1446;SDS011;717;51.522;7.266;2023-11-19T08:08:54;14.80;;;3.15;;
1446;SDS011;717;51.522;7.266;2023-11-19T08:11:26;13.65;;;3.30;;
1446;SDS011;717;51.522;7.266;2023-11-19T08:13:56;11.30;;;2.53;;
1446;SDS011;717;51.522;7.266;2023-11-19T08:16:28;12.23;;;3.10;;
1446;SDS011;717;51.522;7.266;2023-11-19T08:18:58;17.98;;;3.53;;
1446;SDS011;717;51.522;7.266;2023-11-19T08:21:29;14.05;;;3.35;;
1446;SDS011;717;51.522;7.266;2023-11-19T08:23:59;18.40;;;3.63;;
1446;SDS011;717;51.522;7.266;2023-11-19T08:26:30;13.98;;;3.13;;
1446;SDS011;717;51.522;7.266;2023-11-19T08:29:00;13.63;;;4.05;;
1446;SDS011;717;51.522;7.266;2023-11-19T08:31:32;13.52;;;3.03;;
1446;SDS011;717;51.522;7.266;2023-11-19T08:34:02;12.35;;;3.58;;
1446;SDS011;717;51.522;7.266;2023-11-19T08:36:35;14.82;;;3.63;;
1446;SDS011;717;51.522;7.266;2023-11-19T08:39:05;13.95;;;2.88;;
1446;SDS011;717;51.522;7.266;2023-11-19T08:41:35;17.50;;;3.90;;
1446;SDS011;717;51.522;7.266;2023-11-19T08:44:06;13.52;;;2.67;;
1446;SDS011;717;51.522;7.266;2023-11-19T08:46:39;15.48;;;3.17;;
1446;SDS011;717;51.522;7.266;2023-11-19T08:49:16;13.05;;;3.08;;
1446;SDS011;717;51.522;7.266;2023-11-19T08:51:46;17.00;;;3.58;;
1446;SDS011;717;51.522;7.266;2023-11-19T08:54:16;15.27;;;3.10;;
1446;SDS011;717;51.522;7.266;2023-11-19T08:56:46;12.73;;;2.60;;
1446;SDS011;717;51.522;7.266;2023-11-19T08:59:17;16.50;;;3.28;;
1446;SDS011;717;51.522;7.266;2023-11-19T09:01:51;13.15;;;2.55;;
1446;SDS011;717;51.522;7.266;2023-11-19T09:04:21;14.82;;;3.40;;
1446;SDS011;717;51.522;7.266;2023-11-19T09:06:52;15.98;;;3.00;;
1446;SDS011;717;51.522;7.266;2023-11-19T09:09:22;17.10;;;3.70;;
1446;SDS011;717;51.522;7.266;2023-11-19T09:11:52;14.15;;;3.15;;
1446;SDS011;717;51.522;7.266;2023-11-19T09:14:22;12.43;;;3.38;;
1446;SDS011;717;51.522;7.266;2023-11-19T09:16:55;15.30;;;2.80;;
1446;SDS011;717;51.522;7.266;2023-11-19T09:19:26;15.13;;;3.35;;
1446;SDS011;717;51.522;7.266;2023-11-19T09:21:56;16.70;;;3.17;;
1446;SDS011;717;51.522;7.266;2023-11-19T09:24:26;14.32;;;3.65;;
1446;SDS011;717;51.522;7.266;2023-11-19T09:26:56;16.98;;;3.35;;
1446;SDS011;717;51.522;7.266;2023-11-19T09:29:26;12.73;;;3.25;;
1446;SDS011;717;51.522;7.266;2023-11-19T09:31:59;17.75;;;3.75;;
1446;SDS011;717;51.522;7.266;2023-11-19T09:34:31;15.88;;;4.28;;
1446;SDS011;717;51.522;7.266;2023-11-19T09:37:01;18.00;;;3.65;;
1446;SDS011;717;51.522;7.266;2023-11-19T09:39:47;12.05;;;2.92;;
1446;SDS011;717;51.522;7.266;2023-11-19T09:42:17;16.20;;;4.03;;
1446;SDS011;717;51.522;7.266;2023-11-19T09:44:47;15.55;;;3.28;;
1446;SDS011;717;51.522;7.266;2023-11-19T09:47:21;18.10;;;3.80;;
1446;SDS011;717;51.522;7.266;2023-11-19T09:49:51;16.27;;;2.60;;
1446;SDS011;717;51.522;7.266;2023-11-19T09:52:24;13.30;;;3.78;;
1446;SDS011;717;51.522;7.266;2023-11-19T09:54:55;15.10;;;3.25;;
1446;SDS011;717;51.522;7.266;2023-11-19T09:57:25;17.83;;;3.72;;
1446;SDS011;717;51.522;7.266;2023-11-19T09:59:56;16.10;;;3.35;;
1446;SDS011;717;51.522;7.266;2023-11-19T10:02:28;15.48;;;3.30;;
1446;SDS011;717;51.522;7.266;2023-11-19T10:05:04;18.98;;;3.17;;
1446;SDS011;717;51.522;7.266;2023-11-19T10:07:37;15.55;;;2.75;;
1446;SDS011;717;51.522;7.266;2023-11-19T10:10:07;16.63;;;3.45;;
1446;SDS011;717;51.522;7.266;2023-11-19T10:12:41;14.93;;;2.85;;
1446;SDS011;717;51.522;7.266;2023-11-19T10:15:19;11.48;;;3.20;;
1446;SDS011;717;51.522;7.266;2023-11-19T10:17:54;13.80;;;3.05;;
1446;SDS011;717;51.522;7.266;2023-11-19T10:20:25;16.77;;;3.42;;
1446;SDS011;717;51.522;7.266;2023-11-19T10:22:55;13.38;;;3.28;;
1446;SDS011;717;51.522;7.266;2023-11-19T10:25:26;16.55;;;4.03;;
1446;SDS011;717;51.522;7.266;2023-11-19T10:27:57;12.82;;;3.10;;
1446;SDS011;717;51.522;7.266;2023-11-19T10:30:28;14.15;;;2.97;;
1446;SDS011;717;51.522;7.266;2023-11-19T10:33:07;13.90;;;3.08;;
1446;SDS011;717;51.522;7.266;2023-11-19T10:35:51;19.10;;;3.88;;
1446;SDS011;717;51.522;7.266;2023-11-19T10:38:26;19.60;;;3.85;;
1446;SDS011;717;51.522;7.266;2023-11-19T10:40:57;15.63;;;3.60;;
1446;SDS011;717;51.522;7.266;2023-11-19T10:43:27;18.13;;;3.85;;
1446;SDS011;717;51.522;7.266;2023-11-19T10:46:08;15.18;;;3.75;;
1446;SDS011;717;51.522;7.266;2023-11-19T10:48:42;17.05;;;3.65;;
1446;SDS011;717;51.522;7.266;2023-11-19T10:51:14;16.13;;;3.40;;
1446;SDS011;717;51.522;7.266;2023-11-19T10:53:50;17.33;;;4.32;;
1446;SDS011;717;51.522;7.266;2023-11-19T10:56:23;14.50;;;3.53;;
1446;SDS011;717;51.522;7.266;2023-11-19T10:58:55;12.98;;;2.97;;
1446;SDS011;717;51.522;7.266;2023-11-19T11:01:26;14.48;;;3.00;;
1446;SDS011;717;51.522;7.266;2023-11-19T11:04:05;14.27;;;3.92;;
1446;SDS011;717;51.522;7.266;2023-11-19T11:06:40;12.10;;;2.80;;
1446;SDS011;717;51.522;7.266;2023-11-19T11:09:10;11.98;;;3.08;;
1446;SDS011;717;51.522;7.266;2023-11-19T11:11:41;12.73;;;3.30;;
1446;SDS011;717;51.522;7.266;2023-11-19T11:14:16;16.73;;;3.83;;
1446;SDS011;717;51.522;7.266;2023-11-19T11:16:50;14.32;;;3.05;;
1446;SDS011;717;51.522;7.266;2023-11-19T11:19:26;14.10;;;3.67;;
1446;SDS011;717;51.522;7.266;2023-11-19T11:21:56;10.75;;;2.90;;
1446;SDS011;717;51.522;7.266;2023-11-19T11:24:33;12.00;;;3.40;;
1446;SDS011;717;51.522;7.266;2023-11-19T11:27:23;13.07;;;3.28;;
1446;SDS011;717;51.522;7.266;2023-11-19T11:30:15;14.05;;;3.25;;
1446;SDS011;717;51.522;7.266;2023-11-19T11:32:54;10.57;;;2.50;;
1446;SDS011;717;51.522;7.266;2023-11-19T11:35:49;12.68;;;2.42;;
1446;SDS011;717;51.522;7.266;2023-11-19T11:38:28;14.30;;;3.45;;
1446;SDS011;717;51.522;7.266;2023-11-19T11:43:49;16.17;;;3.78;;
1446;SDS011;717;51.522;7.266;2023-11-19T11:49:25;13.10;;;3.33;;
1446;SDS011;717;51.522;7.266;2023-11-19T11:52:05;14.10;;;3.38;;
1446;SDS011;717;51.522;7.266;2023-11-19T11:54:40;13.05;;;2.63;;
1446;SDS011;717;51.522;7.266;2023-11-19T11:57:11;12.13;;;3.15;;
1446;SDS011;717;51.522;7.266;2023-11-19T11:59:45;12.00;;;2.67;;
1446;SDS011;717;51.522;7.266;2023-11-19T12:02:16;13.80;;;3.10;;
1446;SDS011;717;51.522;7.266;2023-11-19T12:04:48;12.55;;;2.75;;
1446;SDS011;717;51.522;7.266;2023-11-19T12:07:23;12.43;;;2.63;;
1446;SDS011;717;51.522;7.266;2023-11-19T12:10:06;14.45;;;3.15;;
1446;SDS011;717;51.522;7.266;2023-11-19T12:12:39;13.20;;;2.70;;
1446;SDS011;717;51.522;7.266;2023-11-19T12:15:10;11.00;;;3.08;;
1446;SDS011;717;51.522;7.266;2023-11-19T12:17:48;13.07;;;2.67;;
1446;SDS011;717;51.522;7.266;2023-11-19T12:20:19;11.85;;;3.70;;
1446;SDS011;717;51.522;7.266;2023-11-19T12:22:56;11.68;;;2.28;;
1446;SDS011;717;51.522;7.266;2023-11-19T12:25:26;10.82;;;2.58;;
1446;SDS011;717;51.522;7.266;2023-11-19T12:28:03;12.38;;;2.97;;
1446;SDS011;717;51.522;7.266;2023-11-19T12:30:34;12.55;;;2.70;;
1446;SDS011;717;51.522;7.266;2023-11-19T12:33:07;8.48;;;2.25;;
1446;SDS011;717;51.522;7.266;2023-11-19T12:35:38;11.55;;;2.60;;
1446;SDS011;717;51.522;7.266;2023-11-19T12:38:17;14.82;;;2.85;;
1446;SDS011;717;51.522;7.266;2023-11-19T12:41:02;10.82;;;2.33;;
1446;SDS011;717;51.522;7.266;2023-11-19T12:43:35;13.10;;;2.60;;
1446;SDS011;717;51.522;7.266;2023-11-19T12:46:16;15.50;;;2.95;;
1446;SDS011;717;51.522;7.266;2023-11-19T12:48:48;14.90;;;3.60;;
1446;SDS011;717;51.522;7.266;2023-11-19T12:51:20;14.90;;;3.28;;
1446;SDS011;717;51.522;7.266;2023-11-19T12:53:53;12.43;;;2.42;;
1446;SDS011;717;51.522;7.266;2023-11-19T12:56:24;12.82;;;2.88;;
1446;SDS011;717;51.522;7.266;2023-11-19T12:58:56;11.65;;;2.50;;
1446;SDS011;717;51.522;7.266;2023-11-19T13:01:26;10.70;;;2.25;;
1446;SDS011;717;51.522;7.266;2023-11-19T13:03:57;11.50;;;2.90;;
1446;SDS011;717;51.522;7.266;2023-11-19T13:06:27;10.20;;;3.08;;
1446;SDS011;717;51.522;7.266;2023-11-19T13:09:00;11.98;;;2.75;;
1446;SDS011;717;51.522;7.266;2023-11-19T13:11:30;9.13;;;2.42;;
1446;SDS011;717;51.522;7.266;2023-11-19T13:14:01;11.13;;;2.33;;
1446;SDS011;717;51.522;7.266;2023-11-19T13:16:36;9.13;;;2.03;;
1446;SDS011;717;51.522;7.266;2023-11-19T13:19:06;8.43;;;2.42;;
1446;SDS011;717;51.522;7.266;2023-11-19T13:21:37;10.60;;;2.45;;
1446;SDS011;717;51.522;7.266;2023-11-19T13:24:10;10.85;;;3.00;;
1446;SDS011;717;51.522;7.266;2023-11-19T13:26:40;13.20;;;2.97;;
1446;SDS011;717;51.522;7.266;2023-11-19T13:29:10;11.95;;;2.15;;
1446;SDS011;717;51.522;7.266;2023-11-19T13:31:40;11.90;;;2.15;;
1446;SDS011;717;51.522;7.266;2023-11-19T13:34:11;8.65;;;2.20;;
1446;SDS011;717;51.522;7.266;2023-11-19T13:36:41;9.13;;;2.10;;
1446;SDS011;717;51.522;7.266;2023-11-19T13:39:14;7.00;;;1.98;;
1446;SDS011;717;51.522;7.266;2023-11-19T13:41:49;9.02;;;2.50;;
1446;SDS011;717;51.522;7.266;2023-11-19T13:44:37;8.13;;;1.65;;
1446;SDS011;717;51.522;7.266;2023-11-19T13:47:09;8.90;;;2.38;;
1446;SDS011;717;51.522;7.266;2023-11-19T13:49:40;11.32;;;2.55;;
1446;SDS011;717;51.522;7.266;2023-11-19T13:52:10;10.15;;;2.75;;
1446;SDS011;717;51.522;7.266;2023-11-19T13:54:43;10.48;;;1.73;;
1446;SDS011;717;51.522;7.266;2023-11-19T13:57:13;9.80;;;2.60;;
1446;SDS011;717;51.522;7.266;2023-11-19T13:59:43;13.50;;;3.15;;
1446;SDS011;717;51.522;7.266;2023-11-19T14:02:13;11.35;;;2.20;;
1446;SDS011;717;51.522;7.266;2023-11-19T14:04:43;10.82;;;2.10;;
1446;SDS011;717;51.522;7.266;2023-11-19T14:07:14;12.18;;;2.58;;
1446;SDS011;717;51.522;7.266;2023-11-19T14:09:47;9.68;;;2.05;;
1446;SDS011;717;51.522;7.266;2023-11-19T14:12:17;11.52;;;2.05;;
1446;SDS011;717;51.522;7.266;2023-11-19T14:14:47;10.63;;;2.13;;
1446;SDS011;717;51.522;7.266;2023-11-19T14:17:17;10.40;;;2.83;;
1446;SDS011;717;51.522;7.266;2023-11-19T14:19:48;12.13;;;2.45;;
1446;SDS011;717;51.522;7.266;2023-11-19T14:22:18;11.00;;;2.53;;
1446;SDS011;717;51.522;7.266;2023-11-19T14:24:50;12.40;;;2.40;;
1446;SDS011;717;51.522;7.266;2023-11-19T14:27:21;9.57;;;2.15;;
1446;SDS011;717;51.522;7.266;2023-11-19T14:29:52;14.43;;;2.95;;
1446;SDS011;717;51.522;7.266;2023-11-19T14:32:22;8.77;;;2.42;;
1446;SDS011;717;51.522;7.266;2023-11-19T14:34:52;12.25;;;2.50;;
1446;SDS011;717;51.522;7.266;2023-11-19T14:37:22;10.80;;;2.15;;
1446;SDS011;717;51.522;7.266;2023-11-19T14:39:54;8.77;;;2.22;;
1446;SDS011;717;51.522;7.266;2023-11-19T14:42:25;13.30;;;2.65;;
1446;SDS011;717;51.522;7.266;2023-11-19T14:44:55;11.52;;;3.15;;
1446;SDS011;717;51.522;7.266;2023-11-19T14:47:25;11.38;;;3.15;;
1446;SDS011;717;51.522;7.266;2023-11-19T14:49:57;11.73;;;2.80;;
1446;SDS011;717;51.522;7.266;2023-11-19T14:52:27;8.93;;;2.15;;
1446;SDS011;717;51.522;7.266;2023-11-19T14:55:00;9.90;;;1.98;;
1446;SDS011;717;51.522;7.266;2023-11-19T14:57:31;12.57;;;3.05;;
1446;SDS011;717;51.522;7.266;2023-11-19T15:00:03;12.25;;;2.35;;
1446;SDS011;717;51.522;7.266;2023-11-19T15:02:40;14.35;;;2.83;;
1446;SDS011;717;51.522;7.266;2023-11-19T15:05:10;12.75;;;3.08;;
1446;SDS011;717;51.522;7.266;2023-11-19T15:07:41;10.40;;;1.98;;
1446;SDS011;717;51.522;7.266;2023-11-19T15:10:14;11.73;;;2.70;;
1446;SDS011;717;51.522;7.266;2023-11-19T15:12:44;8.55;;;2.35;;
1446;SDS011;717;51.522;7.266;2023-11-19T15:15:14;12.70;;;2.15;;
1446;SDS011;717;51.522;7.266;2023-11-19T15:18:02;11.38;;;1.83;;
1446;SDS011;717;51.522;7.266;2023-11-19T15:20:32;10.27;;;1.73;;
1446;SDS011;717;51.522;7.266;2023-11-19T15:23:02;8.68;;;2.08;;
1446;SDS011;717;51.522;7.266;2023-11-19T15:25:38;7.20;;;1.95;;
1446;SDS011;717;51.522;7.266;2023-11-19T15:28:09;9.75;;;2.08;;
1446;SDS011;717;51.522;7.266;2023-11-19T15:30:39;10.95;;;2.78;;
1446;SDS011;717;51.522;7.266;2023-11-19T15:33:09;10.45;;;2.58;;
1446;SDS011;717;51.522;7.266;2023-11-19T15:35:39;7.63;;;1.88;;
1446;SDS011;717;51.522;7.266;2023-11-19T15:38:09;8.48;;;1.88;;
1446;SDS011;717;51.522;7.266;2023-11-19T15:40:42;10.32;;;2.17;;
1446;SDS011;717;51.522;7.266;2023-11-19T15:43:12;10.40;;;2.13;;
1446;SDS011;717;51.522;7.266;2023-11-19T15:45:42;8.70;;;2.17;;
1446;SDS011;717;51.522;7.266;2023-11-19T15:48:12;10.15;;;3.08;;
1446;SDS011;717;51.522;7.266;2023-11-19T15:50:44;11.30;;;2.50;;
1446;SDS011;717;51.522;7.266;2023-11-19T15:53:16;10.25;;;2.40;;
1446;SDS011;717;51.522;7.266;2023-11-19T15:55:49;11.30;;;2.15;;